Time;durP1;ratioP1;P1;durP2;ratioP2;P2;SDS_P1;SDS_P2;PMS_P1;PMS_P2;Temp;Humidity;BMP_temperature;BMP_pressure;BME280_temperature;BME280_humidity;BME280_pressure;Samples;Min_cycle;Max_cycle;Signal;HPM_P1;HPM_P2
2023/09/22 00:00:37;;;;;;;0.98;0.98;;;13.40;99.90;;;;;;5016370;28;20041;-66
2023/09/22 00:03:05;;;;;;;1.50;1.40;;;13.50;99.90;;;;;;5012213;28;20466;-66
2023/09/22 00:05:30;;;;;;;1.98;1.15;;;13.50;99.90;;;;;;5030079;28;20053;-66
2023/09/22 00:07:56;;;;;;;0.98;0.98;;;13.40;99.90;;;;;;5013644;28;20561;-66
2023/09/22 00:10:22;;;;;;;1.33;1.05;;;13.40;99.90;;;;;;5014329;28;20107;-66
2023/09/22 00:12:48;;;;;;;1.08;1.08;;;13.40;99.90;;;;;;5018576;28;20046;-66
2023/09/22 00:15:14;;;;;;;1.10;0.90;;;13.40;99.90;;;;;;4997968;28;20083;-66
2023/09/22 00:17:40;;;;;;;1.23;1.10;;;13.40;99.90;;;;;;5016003;28;20033;-66
2023/09/22 00:20:08;;;;;;;0.95;0.95;;;13.30;99.90;;;;;;5026167;28;20099;-66
2023/09/22 00:22:34;;;;;;;1.10;1.00;;;13.30;99.90;;;;;;4999574;28;20041;-66
2023/09/22 00:25:00;;;;;;;1.15;1.08;;;13.30;99.90;;;;;;5014466;28;20049;-66
2023/09/22 00:27:26;;;;;;;3.05;1.23;;;13.30;99.90;;;;;;5014623;28;20033;-66
2023/09/22 00:29:52;;;;;;;1.27;1.17;;;13.30;99.90;;;;;;4997237;28;20135;-66
2023/09/22 00:32:18;;;;;;;3.10;0.95;;;13.30;99.90;;;;;;5022909;28;20175;-66
2023/09/22 00:34:44;;;;;;;2.15;1.20;;;13.30;99.90;;;;;;5016160;28;20056;-66
2023/09/22 00:37:09;;;;;;;0.82;0.82;;;13.30;99.90;;;;;;5025464;28;20492;-65
2023/09/22 00:39:35;;;;;;;0.68;0.68;;;13.30;99.90;;;;;;5014933;28;20045;-66
2023/09/22 00:42:05;;;;;;;0.80;0.80;;;13.30;99.90;;;;;;5028325;28;20038;-66
2023/09/22 00:44:30;;;;;;;3.10;1.00;;;13.40;99.90;;;;;;5012211;28;20108;-66
2023/09/22 00:46:57;;;;;;;2.90;0.93;;;13.40;99.90;;;;;;5013715;28;20110;-66
2023/09/22 00:49:24;;;;;;;1.48;1.23;;;13.30;99.90;;;;;;4997267;28;20045;-66
2023/09/22 00:51:50;;;;;;;1.15;1.10;;;13.50;99.90;;;;;;5015626;28;20095;-66
2023/09/22 00:54:16;;;;;;;3.30;1.10;;;13.50;99.90;;;;;;5013316;28;20419;-66
2023/09/22 00:56:42;;;;;;;4.20;1.10;;;13.40;99.90;;;;;;5021562;28;20046;-66
2023/09/22 00:59:08;;;;;;;2.90;1.23;;;13.50;99.90;;;;;;5006491;28;20057;-66
2023/09/22 01:01:34;;;;;;;1.98;1.88;;;13.50;99.90;;;;;;5012269;28;20050;-66
2023/09/22 01:03:59;;;;;;;4.78;0.80;;;13.50;99.90;;;;;;5009197;28;20057;-66
2023/09/22 01:06:25;;;;;;;1.27;1.25;;;13.50;99.90;;;;;;5009067;28;20072;-66
2023/09/22 01:08:51;;;;;;;2.25;0.90;;;13.50;99.90;;;;;;5010529;28;20052;-66
2023/09/22 01:11:17;;;;;;;2.70;0.90;;;13.50;99.90;;;;;;5006430;28;20064;-66
2023/09/22 01:13:42;;;;;;;1.25;1.02;;;13.50;99.90;;;;;;5010238;28;20041;-66
2023/09/22 01:16:08;;;;;;;0.95;0.95;;;13.50;99.90;;;;;;5007913;28;20076;-66
2023/09/22 01:18:34;;;;;;;3.75;1.00;;;13.50;99.90;;;;;;5010265;28;20042;-66
2023/09/22 01:21:00;;;;;;;1.23;0.95;;;13.50;99.90;;;;;;5010371;28;20045;-66
2023/09/22 01:23:25;;;;;;;1.92;0.90;;;13.60;99.90;;;;;;5015407;28;20044;-66
2023/09/22 01:25:51;;;;;;;1.15;0.90;;;13.60;99.90;;;;;;5011949;28;20056;-66
2023/09/22 01:28:17;;;;;;;1.65;0.95;;;13.50;99.90;;;;;;5007182;28;20034;-66
2023/09/22 01:30:43;;;;;;;0.95;0.95;;;13.60;99.90;;;;;;5011131;28;20522;-66
2023/09/22 01:33:09;;;;;;;1.10;0.90;;;13.60;99.90;;;;;;5021299;28;20548;-66
2023/09/22 01:35:35;;;;;;;2.33;0.80;;;13.60;99.90;;;;;;5011822;28;20041;-66
2023/09/22 01:38:25;;;;;;;0.70;0.70;;;13.60;99.90;;;;;;5010050;28;20084;-65
2023/09/22 01:40:54;;;;;;;0.90;0.80;;;13.60;99.90;;;;;;5019694;28;20045;-65
2023/09/22 01:43:20;;;;;;;0.88;0.73;;;13.60;99.90;;;;;;5009374;28;20046;-65
2023/09/22 01:45:46;;;;;;;1.00;0.80;;;13.60;99.90;;;;;;5008581;28;20060;-66
2023/09/22 01:48:11;;;;;;;1.95;1.10;;;13.70;99.90;;;;;;5008943;28;20485;-65
2023/09/22 01:50:40;;;;;;;0.98;0.80;;;13.60;99.90;;;;;;5008315;28;20047;-65
2023/09/22 01:53:08;;;;;;;1.02;1.02;;;13.70;99.90;;;;;;5010890;28;20112;-65
2023/09/22 01:55:35;;;;;;;1.20;1.10;;;13.70;99.90;;;;;;5010292;28;20411;-65
2023/09/22 01:58:01;;;;;;;3.70;1.10;;;13.70;99.90;;;;;;5007633;28;20062;-65
2023/09/22 02:00:26;;;;;;;1.10;1.10;;;13.80;99.90;;;;;;5008895;28;20046;-65
2023/09/22 02:02:53;;;;;;;1.45;1.10;;;13.80;99.90;;;;;;5005986;28;20432;-65
2023/09/22 02:05:19;;;;;;;1.30;1.20;;;13.70;99.90;;;;;;5007807;28;20435;-65
2023/09/22 02:07:45;;;;;;;1.80;1.42;;;13.80;99.90;;;;;;5007618;28;20104;-65
2023/09/22 02:10:13;;;;;;;1.73;1.58;;;13.80;99.90;;;;;;5009128;28;20456;-65
2023/09/22 02:12:40;;;;;;;2.50;1.90;;;13.80;99.90;;;;;;5005279;28;20140;-65
2023/09/22 02:15:11;;;;;;;2.13;2.03;;;13.70;99.90;;;;;;5009249;28;20046;-65
2023/09/22 02:17:44;;;;;;;2.58;2.40;;;13.80;99.90;;;;;;5001690;28;20049;-65
2023/09/22 02:20:22;;;;;;;2.80;2.60;;;13.90;99.90;;;;;;5007865;28;20121;-65
2023/09/22 02:22:58;;;;;;;2.65;2.55;;;13.90;99.90;;;;;;5008161;28;20451;-65
2023/09/22 02:25:24;;;;;;;4.25;2.78;;;13.90;99.90;;;;;;4996560;28;20038;-65
2023/09/22 02:27:54;;;;;;;3.95;3.55;;;13.90;99.90;;;;;;5008728;28;20042;-65
2023/09/22 02:30:21;;;;;;;3.25;3.05;;;13.90;99.90;;;;;;5007386;28;20044;-65
2023/09/22 02:32:50;;;;;;;3.72;3.42;;;14.00;99.90;;;;;;5007693;28;20038;-65
2023/09/22 02:35:17;;;;;;;3.90;3.60;;;14.00;99.90;;;;;;4995875;28;20034;-65
2023/09/22 02:37:43;;;;;;;4.32;3.83;;;14.00;99.90;;;;;;5005563;28;20139;-65
2023/09/22 02:40:09;;;;;;;4.40;4.00;;;14.00;99.90;;;;;;4982360;28;20500;-65
2023/09/22 02:42:35;;;;;;;5.97;4.30;;;14.10;99.90;;;;;;5000163;28;20038;-65
2023/09/22 02:45:01;;;;;;;5.10;4.60;;;14.10;99.90;;;;;;5005769;28;20100;-66
2023/09/22 02:47:27;;;;;;;5.18;4.70;;;14.10;99.90;;;;;;4998207;28;20042;-65
2023/09/22 02:49:54;;;;;;;5.90;4.55;;;14.00;99.90;;;;;;5000725;28;20570;-65
2023/09/22 02:52:20;;;;;;;7.40;4.65;;;14.10;99.90;;;;;;5000436;28;20046;-65
2023/09/22 02:54:46;;;;;;;5.80;4.80;;;14.10;99.90;;;;;;5001151;28;20496;-65
2023/09/22 02:57:11;;;;;;;8.07;4.30;;;14.10;99.90;;;;;;4997918;28;20050;-65
2023/09/22 02:59:37;;;;;;;7.18;5.07;;;14.10;99.90;;;;;;4999122;28;20061;-66
2023/09/22 03:02:03;;;;;;;5.75;5.25;;;14.10;99.90;;;;;;5002535;28;20049;-65
2023/09/22 03:04:32;;;;;;;5.80;5.30;;;14.10;99.90;;;;;;5018985;28;20091;-67
2023/09/22 03:06:58;;;;;;;5.90;5.20;;;14.10;99.90;;;;;;5020915;28;20049;-65
2023/09/22 03:09:23;;;;;;;5.43;4.93;;;14.00;99.90;;;;;;5000658;28;20052;-65
2023/09/22 03:11:49;;;;;;;6.40;5.22;;;14.00;99.90;;;;;;5013415;28;20038;-65
2023/09/22 03:14:15;;;;;;;8.93;5.30;;;14.00;99.90;;;;;;4990095;28;20472;-65
2023/09/22 03:16:41;;;;;;;6.07;5.50;;;13.90;99.90;;;;;;5006307;28;20396;-65
2023/09/22 03:19:09;;;;;;;6.45;5.75;;;14.00;99.90;;;;;;5009115;28;20096;-65
2023/09/22 03:21:35;;;;;;;6.10;5.60;;;13.90;99.90;;;;;;4999707;28;20041;-65
2023/09/22 03:24:01;;;;;;;9.50;6.07;;;13.90;99.90;;;;;;5023291;28;20472;-65
2023/09/22 03:26:27;;;;;;;8.27;6.30;;;13.90;99.90;;;;;;5004998;28;20554;-65
2023/09/22 03:28:52;;;;;;;7.82;6.63;;;14.00;99.90;;;;;;5009654;28;20404;-65
2023/09/22 03:31:19;;;;;;;6.93;5.97;;;13.90;99.90;;;;;;5015222;28;20092;-65
2023/09/22 03:33:46;;;;;;;6.47;5.68;;;14.00;99.90;;;;;;5018202;28;20450;-65
2023/09/22 03:36:12;;;;;;;11.90;6.78;;;14.00;99.90;;;;;;4995475;28;20539;-65
2023/09/22 03:38:40;;;;;;;7.45;6.38;;;13.90;99.90;;;;;;5009625;28;20044;-65
2023/09/22 03:41:06;;;;;;;7.32;6.38;;;14.00;99.90;;;;;;5007909;28;20467;-65
2023/09/22 03:43:35;;;;;;;7.63;6.50;;;14.00;99.90;;;;;;4990947;28;20653;-65
2023/09/22 03:46:01;;;;;;;7.90;7.07;;;14.00;99.90;;;;;;5009949;28;20434;-65
2023/09/22 03:48:27;;;;;;;7.78;6.90;;;13.90;99.90;;;;;;5010401;28;20049;-65
2023/09/22 03:50:53;;;;;;;7.13;6.47;;;14.00;99.90;;;;;;5017584;28;20038;-65
2023/09/22 03:53:19;;;;;;;7.78;6.97;;;14.00;99.90;;;;;;5007691;28;20408;-65
2023/09/22 03:55:45;;;;;;;7.15;6.45;;;14.00;99.90;;;;;;5005612;28;20034;-65
2023/09/22 03:58:11;;;;;;;7.78;6.97;;;14.00;99.90;;;;;;5007631;28;20358;-65
2023/09/22 04:00:37;;;;;;;9.25;7.72;;;14.00;99.90;;;;;;4993894;28;20048;-65
2023/09/22 04:03:09;;;;;;;10.20;7.28;;;14.10;99.90;;;;;;5009113;28;20057;-65
2023/09/22 04:05:36;;;;;;;8.60;7.63;;;14.00;99.90;;;;;;5012123;28;20099;-65
2023/09/22 04:08:02;;;;;;;11.10;7.10;;;14.00;99.90;;;;;;5008920;28;20128;-65
2023/09/22 04:10:28;;;;;;;8.48;6.72;;;14.00;99.90;;;;;;5022584;28;20060;-65
2023/09/22 04:12:54;;;;;;;7.72;6.90;;;14.00;99.90;;;;;;5007375;28;20088;-65
2023/09/22 04:15:23;;;;;;;11.60;7.47;;;14.00;99.90;;;;;;5007365;28;20459;-65
2023/09/22 04:17:50;;;;;;;7.40;6.70;;;14.00;99.90;;;;;;5005196;28;20050;-65
2023/09/22 04:20:18;;;;;;;7.22;6.50;;;14.00;99.90;;;;;;5023775;28;20080;-65
2023/09/22 04:22:43;;;;;;;8.75;6.65;;;14.00;99.90;;;;;;5024361;28;20041;-65
2023/09/22 04:25:13;;;;;;;8.80;6.57;;;13.90;99.90;;;;;;5006700;28;20041;-65
2023/09/22 04:27:47;;;;;;;;;;;14.00;99.90;;;;;;5007619;28;20057;-65
2023/09/22 04:30:16;;;;;;;6.60;5.93;;;14.00;99.90;;;;;;5005987;28;19925;-65
2023/09/22 04:32:45;;;;;;;7.57;6.50;;;13.90;99.90;;;;;;5026499;28;20080;-65
2023/09/22 04:35:11;;;;;;;6.70;6.03;;;13.90;99.90;;;;;;5008029;28;20050;-65
2023/09/22 04:37:38;;;;;;;6.72;6.05;;;13.80;99.90;;;;;;5010870;28;20469;-65
2023/09/22 04:40:10;;;;;;;6.32;5.72;;;13.80;99.90;;;;;;5013321;28;20392;-65
2023/09/22 04:42:36;;;;;;;6.75;6.07;;;13.90;99.90;;;;;;5012184;28;20525;-65
2023/09/22 04:45:02;;;;;;;9.63;6.35;;;13.80;99.90;;;;;;5027348;28;20038;-65
2023/09/22 04:47:27;;;;;;;6.20;5.60;;;13.90;99.90;;;;;;5011588;28;20134;-65
2023/09/22 04:49:53;;;;;;;6.90;5.93;;;13.90;99.90;;;;;;5010274;28;20045;-65
2023/09/22 04:52:19;;;;;;;6.18;5.57;;;13.80;99.90;;;;;;5009236;28;20042;-65
2023/09/22 04:54:44;;;;;;;6.18;5.55;;;13.90;99.90;;;;;;5005168;28;20052;-65
2023/09/22 04:57:10;;;;;;;6.57;5.88;;;13.80;99.90;;;;;;5010329;28;20555;-65
2023/09/22 04:59:37;;;;;;;6.97;5.72;;;13.80;99.90;;;;;;5010347;28;20054;-65
2023/09/22 05:02:05;;;;;;;7.20;6.45;;;13.80;99.90;;;;;;5007629;28;20045;-65
2023/09/22 05:04:31;;;;;;;5.40;5.00;;;13.80;99.90;;;;;;5028469;28;20053;-65
2023/09/22 05:06:57;;;;;;;9.05;6.53;;;13.80;99.90;;;;;;5030024;28;21020;-65
2023/09/22 05:09:23;;;;;;;6.72;6.13;;;13.80;99.90;;;;;;5028464;28;20531;-65
2023/09/22 05:11:49;;;;;;;7.60;5.93;;;13.80;99.90;;;;;;5029074;28;20049;-65
2023/09/22 05:14:14;;;;;;;7.00;6.30;;;13.70;99.90;;;;;;5010458;28;20103;-65
2023/09/22 05:16:42;;;;;;;7.22;6.18;;;13.70;99.90;;;;;;5011828;28;20048;-65
2023/09/22 05:19:07;;;;;;;6.90;6.05;;;13.80;99.90;;;;;;5011097;28;20049;-65
2023/09/22 05:21:33;;;;;;;11.20;6.63;;;13.70;99.90;;;;;;5028282;28;20045;-65
2023/09/22 05:23:59;;;;;;;6.85;5.97;;;13.80;99.90;;;;;;5029444;28;20129;-65
2023/09/22 05:26:25;;;;;;;7.60;6.85;;;13.80;99.90;;;;;;5027983;28;20041;-65
2023/09/22 05:28:51;;;;;;;9.57;7.05;;;13.70;99.90;;;;;;5029476;28;20076;-65
2023/09/22 05:31:17;;;;;;;6.35;5.75;;;13.80;99.90;;;;;;4993150;28;20045;-65
2023/09/22 05:33:42;;;;;;;10.45;6.40;;;13.80;99.90;;;;;;5029138;28;20484;-65
2023/09/22 05:36:08;;;;;;;14.82;6.80;;;13.80;99.90;;;;;;5010414;28;20430;-65
2023/09/22 05:38:35;;;;;;;7.43;6.35;;;13.70;99.90;;;;;;5029343;28;20065;-65
2023/09/22 05:41:01;;;;;;;8.10;6.47;;;13.70;99.90;;;;;;5028671;28;20045;-65
2023/09/22 05:43:27;;;;;;;7.68;6.63;;;13.80;99.90;;;;;;4999049;28;20075;-65
2023/09/22 05:45:56;;;;;;;9.50;7.82;;;13.80;99.90;;;;;;5010347;28;20041;-66
2023/09/22 05:48:23;;;;;;;11.18;8.00;;;13.70;99.90;;;;;;5027843;28;20037;-66
2023/09/22 05:50:59;;;;;;;11.50;7.85;;;13.80;99.90;;;;;;5028345;28;20602;-66
2023/09/22 05:53:26;;;;;;;9.88;8.15;;;13.70;99.90;;;;;;4997806;28;20117;-66
2023/09/22 05:56:12;;;;;;;10.82;8.70;;;13.70;99.90;;;;;;5020291;28;20122;-66
2023/09/22 05:58:39;;;;;;;15.57;8.77;;;13.70;99.90;;;;;;5025402;28;20177;-66
2023/09/22 06:01:09;;;;;;;15.18;9.88;;;13.70;99.90;;;;;;5006966;28;20037;-66
2023/09/22 06:03:39;;;;;;;10.75;8.35;;;13.70;99.90;;;;;;4999399;28;20504;-66
2023/09/22 06:06:08;;;;;;;;;;;13.70;99.90;;;;;;4997790;28;20046;-66
2023/09/22 06:08:36;;;;;;;11.70;8.00;;;13.70;99.90;;;;;;4995625;28;20289;-66
2023/09/22 06:11:02;;;;;;;8.93;8.00;;;13.70;99.90;;;;;;4988541;28;20097;-66
2023/09/22 06:13:28;;;;;;;8.90;7.55;;;13.70;99.90;;;;;;5003116;28;20046;-65
2023/09/22 06:15:55;;;;;;;12.05;8.93;;;13.70;99.90;;;;;;4988775;28;20123;-65
2023/09/22 06:18:20;;;;;;;10.32;9.00;;;13.80;99.90;;;;;;4989260;28;20037;-65
2023/09/22 06:20:46;;;;;;;12.25;9.20;;;13.90;99.90;;;;;;5006964;28;20041;-66
2023/09/22 06:23:12;;;;;;;12.52;9.30;;;13.80;99.90;;;;;;4988846;28;20132;-66
2023/09/22 06:25:38;;;;;;;12.57;9.65;;;14.00;99.90;;;;;;5005034;28;20423;-65
2023/09/22 06:28:05;;;;;;;10.32;8.75;;;14.00;99.90;;;;;;4994735;28;20046;-65
2023/09/22 06:30:34;;;;;;;14.45;9.68;;;14.00;99.90;;;;;;4994698;28;20038;-66
2023/09/22 06:33:04;;;;;;;11.07;8.97;;;14.00;99.90;;;;;;5005670;28;20096;-65
2023/09/22 06:35:31;;;;;;;12.65;8.90;;;13.90;99.90;;;;;;4996745;28;20053;-65
2023/09/22 06:37:56;;;;;;;12.85;8.57;;;13.90;99.90;;;;;;5007294;28;20278;-65
2023/09/22 06:40:22;;;;;;;13.20;8.88;;;13.90;99.90;;;;;;4992488;28;20652;-65
2023/09/22 06:42:48;;;;;;;13.52;9.93;;;13.90;99.90;;;;;;4997424;28;20045;-65
2023/09/22 06:45:16;;;;;;;12.40;9.18;;;13.90;99.90;;;;;;4996538;28;20079;-66
2023/09/22 06:47:42;;;;;;;12.82;10.27;;;14.00;99.90;;;;;;4997157;28;20616;-65
2023/09/22 06:50:08;;;;;;;15.70;10.77;;;14.00;99.90;;;;;;5004515;28;20085;-66
2023/09/22 06:52:40;;;;;;;14.15;10.63;;;14.10;99.90;;;;;;5006477;28;20044;-65
2023/09/22 06:55:13;;;;;;;15.55;10.65;;;14.20;99.90;;;;;;5003843;28;20041;-65
2023/09/22 06:57:42;;;;;;;15.90;11.70;;;14.30;99.90;;;;;;5002136;28;20132;-65
2023/09/22 07:00:15;;;;;;;13.80;10.73;;;14.30;99.90;;;;;;5005021;28;20046;-65
2023/09/22 07:02:48;;;;;;;16.23;11.32;;;14.30;99.90;;;;;;5006946;28;20061;-65
2023/09/22 07:05:15;;;;;;;12.88;9.55;;;14.20;99.90;;;;;;5024619;28;20048;-66
2023/09/22 07:07:40;;;;;;;12.93;10.10;;;14.30;99.90;;;;;;5024040;28;20132;-65
2023/09/22 07:10:10;;;;;;;11.30;9.57;;;14.30;99.90;;;;;;5007400;28;20171;-66
2023/09/22 07:12:37;;;;;;;16.50;10.90;;;14.40;99.90;;;;;;5023808;28;20503;-66
2023/09/22 07:15:03;;;;;;;14.02;10.25;;;14.50;99.90;;;;;;4999796;28;20052;-66
2023/09/22 07:17:29;;;;;;;14.13;9.48;;;14.50;99.90;;;;;;5023862;28;20045;-65
2023/09/22 07:19:55;;;;;;;16.88;9.27;;;14.50;99.90;;;;;;5014462;28;20048;-65
2023/09/22 07:22:20;;;;;;;11.68;8.30;;;14.40;99.90;;;;;;5016709;28;20490;-65
2023/09/22 07:24:46;;;;;;;12.90;9.63;;;14.50;99.90;;;;;;5011936;28;20061;-66
2023/09/22 07:27:12;;;;;;;13.02;9.00;;;14.40;99.90;;;;;;5010373;28;20037;-66
2023/09/22 07:29:38;;;;;;;13.20;8.77;;;14.40;99.90;;;;;;5012298;28;20049;-66
2023/09/22 07:32:03;;;;;;;11.75;8.32;;;14.50;99.90;;;;;;5016331;28;20045;-66
2023/09/22 07:34:29;;;;;;;12.75;7.65;;;14.50;99.90;;;;;;4995526;28;20033;-66
2023/09/22 07:36:55;;;;;;;8.52;7.32;;;14.60;99.90;;;;;;4993714;28;20529;-65
2023/09/22 07:39:21;;;;;;;13.98;7.78;;;14.60;99.90;;;;;;5026653;28;20511;-66
2023/09/22 07:41:47;;;;;;;15.85;8.23;;;14.60;99.90;;;;;;5010962;28;20060;-66
2023/09/22 07:44:14;;;;;;;12.40;6.95;;;14.60;99.90;;;;;;4988127;28;20076;-66
2023/09/22 07:46:41;;;;;;;12.13;7.03;;;14.60;99.90;;;;;;5026521;28;20525;-66
2023/09/22 07:49:07;;;;;;;8.95;6.80;;;14.60;99.90;;;;;;5001989;28;20060;-66
2023/09/22 07:51:33;;;;;;;8.68;6.47;;;14.50;99.90;;;;;;5021245;28;20137;-66
2023/09/22 07:53:59;;;;;;;11.95;6.97;;;14.40;99.90;;;;;;5015456;28;20057;-66
2023/09/22 07:56:25;;;;;;;10.55;7.35;;;14.50;99.90;;;;;;5011969;28;20049;-66
2023/09/22 07:58:51;;;;;;;9.68;7.03;;;14.50;99.90;;;;;;4991810;28;20058;-66
2023/09/22 08:01:17;;;;;;;9.38;6.93;;;14.40;99.90;;;;;;4991403;28;20504;-66
2023/09/22 08:03:45;;;;;;;11.88;7.32;;;14.40;99.90;;;;;;5023662;28;20054;-66
2023/09/22 08:06:12;;;;;;;14.48;7.95;;;14.40;99.90;;;;;;5018255;28;20045;-66
2023/09/22 08:08:38;;;;;;;9.88;6.85;;;14.50;99.90;;;;;;5019679;28;20113;-66
2023/09/22 08:11:04;;;;;;;10.38;7.05;;;14.40;99.90;;;;;;5025966;28;20100;-66
2023/09/22 08:13:35;;;;;;;8.32;6.50;;;14.40;99.90;;;;;;5010020;28;20041;-66
2023/09/22 08:16:06;;;;;;;8.68;5.90;;;14.40;99.90;;;;;;5005004;28;20143;-66
2023/09/22 08:18:37;;;;;;;8.68;5.55;;;14.30;99.90;;;;;;5012696;28;20102;-66
2023/09/22 08:21:04;;;;;;;7.88;5.47;;;14.20;99.90;;;;;;5015479;28;20057;-66
2023/09/22 08:23:30;;;;;;;9.82;6.15;;;14.20;99.90;;;;;;5017228;28;20057;-66
2023/09/22 08:25:56;;;;;;;10.73;6.28;;;14.10;99.90;;;;;;5026388;28;20050;-66
2023/09/22 08:28:23;;;;;;;10.63;5.38;;;14.10;99.90;;;;;;5010861;28;20076;-66
2023/09/22 08:30:49;;;;;;;8.02;5.43;;;14.20;99.90;;;;;;5015133;28;20113;-66
2023/09/22 08:33:15;;;;;;;8.45;5.60;;;14.10;99.90;;;;;;5010723;28;20357;-66
2023/09/22 08:35:41;;;;;;;10.25;5.55;;;14.10;99.90;;;;;;4996601;28;20415;-66
2023/09/22 08:38:06;;;;;;;7.38;5.07;;;14.10;99.90;;;;;;5009150;28;20041;-66
2023/09/22 08:40:32;;;;;;;9.60;5.30;;;14.10;99.90;;;;;;5015702;28;20052;-66
2023/09/22 08:43:00;;;;;;;7.97;4.90;;;14.10;99.90;;;;;;5021153;28;20045;-66
2023/09/22 08:45:25;;;;;;;8.52;5.43;;;14.10;99.90;;;;;;5014505;28;20539;-66
2023/09/22 08:47:51;;;;;;;7.80;5.80;;;14.10;99.90;;;;;;5028816;28;20136;-66
2023/09/22 08:50:18;;;;;;;7.32;5.45;;;14.10;99.90;;;;;;5027880;28;20128;-67
2023/09/22 08:52:50;;;;;;;7.90;5.30;;;14.10;99.90;;;;;;5019559;28;20042;-66
2023/09/22 08:55:16;;;;;;;5.82;4.90;;;14.10;99.90;;;;;;5015138;28;20045;-66
2023/09/22 08:57:44;;;;;;;7.40;4.85;;;14.10;99.90;;;;;;4995820;28;20057;-66
2023/09/22 09:00:19;;;;;;;6.05;4.20;;;14.10;99.90;;;;;;5018722;28;20042;-67
2023/09/22 09:02:46;;;;;;;6.22;4.20;;;14.10;99.90;;;;;;5010751;28;20058;-66
2023/09/22 09:05:24;;;;;;;6.65;3.88;;;14.10;99.90;;;;;;4984827;28;20053;-66
2023/09/22 09:07:51;;;;;;;10.73;4.15;;;14.20;99.90;;;;;;4990624;28;20056;-66
2023/09/22 09:10:32;;;;;;;5.88;3.63;;;14.20;99.90;;;;;;4992483;28;20041;-66
2023/09/22 09:13:01;;;;;;;8.63;3.83;;;14.30;99.90;;;;;;4992499;28;20061;-66
2023/09/22 09:15:29;;;;;;;4.20;3.42;;;14.30;99.90;;;;;;4998435;28;20097;-66
2023/09/22 09:18:11;;;;;;;8.98;3.63;;;14.40;99.90;;;;;;4996369;28;20519;-65
2023/09/22 09:20:40;;;;;;;6.47;4.15;;;14.50;99.90;;;;;;4996699;28;20052;-65
2023/09/22 09:23:20;;;;;;;8.13;3.33;;;14.60;99.90;;;;;;4972971;28;20108;-65
2023/09/22 09:25:54;;;;;;;6.20;3.08;;;14.60;99.90;;;;;;5001060;28;20042;-65
2023/09/22 09:28:21;;;;;;;6.32;2.70;;;14.70;99.90;;;;;;4995848;28;20042;-66
2023/09/22 09:30:54;;;;;;;4.80;2.60;;;14.70;99.90;;;;;;5009622;28;20096;-66
2023/09/22 09:33:41;;;;;;;3.20;2.85;;;14.70;99.90;;;;;;4998236;28;20495;-66
2023/09/22 09:36:16;;;;;;;4.47;2.17;;;14.70;99.90;;;;;;4999001;28;20155;-65
2023/09/22 09:38:42;;;;;;;4.03;2.60;;;14.70;99.90;;;;;;4999117;28;20085;-66
2023/09/22 09:41:10;;;;;;;5.50;2.38;;;14.70;99.90;;;;;;4985630;28;20046;-66
2023/09/22 09:43:37;;;;;;;4.80;2.60;;;14.80;99.90;;;;;;5003055;28;20048;-66
2023/09/22 09:46:05;;;;;;;4.47;2.55;;;14.80;99.90;;;;;;5007864;28;20046;-65
2023/09/22 09:48:37;;;;;;;6.43;2.70;;;14.90;99.90;;;;;;5001850;28;20496;-66
2023/09/22 09:51:09;;;;;;;9.00;2.55;;;15.10;99.90;;;;;;5007555;28;20054;-66
2023/09/22 09:53:45;;;;;;;3.78;2.40;;;15.20;99.90;;;;;;5007547;28;20050;-66
2023/09/22 09:56:16;;;;;;;5.25;2.25;;;15.40;99.90;;;;;;4991153;28;20488;-66
2023/09/22 09:58:45;;;;;;;2.67;1.88;;;15.50;99.90;;;;;;5005303;28;20393;-66
2023/09/22 10:01:11;;;;;;;3.55;1.90;;;15.60;99.90;;;;;;4991003;28;20533;-66
2023/09/22 10:03:42;;;;;;;2.10;1.60;;;15.60;99.90;;;;;;5018303;28;20623;-66
2023/09/22 10:06:16;;;;;;;3.00;1.60;;;15.60;99.90;;;;;;5028312;28;20110;-66
2023/09/22 10:08:43;;;;;;;1.85;1.40;;;15.70;99.90;;;;;;5007228;28;20049;-66
2023/09/22 10:11:13;;;;;;;2.58;1.52;;;15.80;99.90;;;;;;5025180;28;20505;-66
2023/09/22 10:13:39;;;;;;;2.70;1.63;;;16.00;99.90;;;;;;5008566;28;20120;-66
2023/09/22 10:16:06;;;;;;;3.05;1.23;;;16.20;99.90;;;;;;4990781;28;20124;-66
2023/09/22 10:18:51;;;;;;;2.03;1.20;;;16.40;99.90;;;;;;5008832;28;20061;-66
2023/09/22 10:21:29;;;;;;;4.05;1.35;;;16.30;99.90;;;;;;4992441;28;20089;-66
2023/09/22 10:24:19;;;;;;;2.55;1.20;;;16.30;99.90;;;;;;5018236;28;20053;-66
2023/09/22 10:26:54;;;;;;;3.20;1.50;;;16.30;99.90;;;;;;4997121;28;20096;-66
2023/09/22 10:29:35;;;;;;;2.05;1.27;;;16.40;99.90;;;;;;5008613;28;20128;-66
2023/09/22 10:32:16;;;;;;;3.55;1.20;;;16.30;99.90;;;;;;5016948;28;20046;-66
2023/09/22 10:34:49;;;;;;;2.47;1.10;;;16.30;99.90;;;;;;5010916;28;20050;-66
2023/09/22 10:37:15;;;;;;;2.67;1.00;;;16.20;99.90;;;;;;5008307;28;20512;-66
2023/09/22 10:39:52;;;;;;;3.05;1.30;;;16.10;99.90;;;;;;5008320;28;20046;-66
2023/09/22 10:42:18;;;;;;;4.25;0.90;;;16.20;99.90;;;;;;5016220;28;20058;-66
2023/09/22 10:45:05;;;;;;;2.55;1.10;;;16.40;99.90;;;;;;5009772;28;20037;-66
2023/09/22 10:47:39;;;;;;;0.43;0.43;;;16.40;99.90;;;;;;5008400;28;20503;-66
2023/09/22 10:50:14;;;;;;;0.57;0.47;;;16.40;99.90;;;;;;4991620;28;20045;-66
2023/09/22 10:52:48;;;;;;;1.58;0.70;;;16.30;99.90;;;;;;5008578;28;20080;-66
2023/09/22 10:55:31;;;;;;;1.38;0.60;;;16.40;99.90;;;;;;5005690;28;20084;-66
2023/09/22 10:57:57;;;;;;;3.53;0.80;;;16.40;99.90;;;;;;5002850;28;20394;-66
2023/09/22 11:00:24;;;;;;;2.67;0.63;;;16.40;99.90;;;;;;5005239;28;20546;-66
2023/09/22 11:02:50;;;;;;;1.08;0.60;;;16.40;99.90;;;;;;5014595;28;20516;-66
2023/09/22 11:05:17;;;;;;;1.40;0.82;;;16.40;99.90;;;;;;5016305;28;20052;-65
2023/09/22 11:07:43;;;;;;;2.15;0.52;;;16.40;99.90;;;;;;5014645;28;20610;-65
2023/09/22 11:10:17;;;;;;;0.75;0.70;;;16.40;99.90;;;;;;5023636;28;20050;-66
2023/09/22 11:12:50;;;;;;;0.50;0.50;;;16.40;99.90;;;;;;5018693;28;20052;-66
2023/09/22 11:15:16;;;;;;;1.58;0.70;;;16.30;99.90;;;;;;5012971;28;20527;-65
2023/09/22 11:17:46;;;;;;;2.17;0.73;;;16.40;99.90;;;;;;5021835;28;20041;-66
2023/09/22 11:20:26;;;;;;;;;;;16.50;99.90;;;;;;5019981;28;20169;-66
2023/09/22 11:22:52;;;;;;;0.47;0.45;;;16.50;99.90;;;;;;5015707;28;20525;-65
2023/09/22 11:25:22;;;;;;;3.13;0.60;;;16.60;99.90;;;;;;4983523;28;20049;-66
2023/09/22 11:27:52;;;;;;;0.93;0.70;;;16.60;99.90;;;;;;5007556;28;20037;-66
2023/09/22 11:30:26;;;;;;;1.95;0.77;;;16.70;99.90;;;;;;5005948;28;20064;-65
2023/09/22 11:32:53;;;;;;;1.02;0.65;;;16.90;99.90;;;;;;5000672;28;20484;-66
2023/09/22 11:35:28;;;;;;;1.52;0.60;;;17.10;99.90;;;;;;4995889;28;20384;-66
2023/09/22 11:37:55;;;;;;;0.50;0.50;;;17.40;99.90;;;;;;4995070;28;20426;-65
2023/09/22 11:40:22;;;;;;;2.03;0.38;;;17.40;99.90;;;;;;5007716;28;20121;-65
2023/09/22 11:42:48;;;;;;;2.15;0.73;;;17.40;98.20;;;;;;5004929;28;20046;-65
2023/09/22 11:45:24;;;;;;;2.10;0.55;;;17.40;99.90;;;;;;4990899;28;20442;-65
2023/09/22 11:48:03;;;;;;;1.45;0.68;;;17.40;99.50;;;;;;5006181;28;20054;-66
2023/09/22 11:50:30;;;;;;;1.30;0.65;;;17.60;99.90;;;;;;5003631;28;20125;-65
2023/09/22 11:53:17;;;;;;;0.95;0.47;;;17.70;99.90;;;;;;5001002;28;20065;-65
2023/09/22 11:55:47;;;;;;;0.73;0.55;;;17.90;99.90;;;;;;5004421;28;20049;-65
2023/09/22 11:58:14;;;;;;;0.73;0.50;;;17.90;98.40;;;;;;5007980;28;20098;-66
2023/09/22 12:00:41;;;;;;;0.55;0.55;;;17.90;94.10;;;;;;5011060;28;20054;-65
2023/09/22 12:03:07;;;;;;;2.72;0.63;;;17.80;94.90;;;;;;5013190;28;20133;-66
2023/09/22 12:05:36;;;;;;;1.55;0.40;;;17.70;98.50;;;;;;4997415;28;20236;-65
2023/09/22 12:08:04;;;;;;;0.50;0.40;;;17.60;95.40;;;;;;4987473;28;20408;-66
2023/09/22 12:10:30;;;;;;;3.67;0.80;;;17.50;93.30;;;;;;5000346;28;20053;-66
2023/09/22 12:12:55;;;;;;;1.75;0.50;;;17.50;94.50;;;;;;5007671;28;20080;-65
2023/09/22 12:15:21;;;;;;;0.45;0.40;;;17.40;96.70;;;;;;4998284;28;20145;-66
2023/09/22 12:17:47;;;;;;;1.77;0.80;;;17.30;98.90;;;;;;5001738;28;20088;-66
2023/09/22 12:20:12;;;;;;;1.15;0.38;;;17.30;97.90;;;;;;5007687;28;20042;-66
2023/09/22 12:22:38;;;;;;;0.70;0.50;;;17.20;98.20;;;;;;5005641;28;20073;-65
2023/09/22 12:25:07;;;;;;;1.15;0.70;;;17.20;98.60;;;;;;5006483;28;20048;-66
2023/09/22 12:27:32;;;;;;;2.05;0.60;;;17.10;98.50;;;;;;4994900;28;20050;-66
2023/09/22 12:29:59;;;;;;;1.75;0.60;;;17.10;99.90;;;;;;5004001;28;20140;-66
2023/09/22 12:32:25;;;;;;;2.72;0.55;;;17.00;99.60;;;;;;5006882;28;20046;-65
2023/09/22 12:34:51;;;;;;;4.65;0.45;;;16.90;99.90;;;;;;5005311;28;20036;-67
2023/09/22 12:37:17;;;;;;;1.02;0.40;;;16.90;99.90;;;;;;5001961;28;20078;-66
2023/09/22 12:39:44;;;;;;;0.50;0.50;;;16.90;99.90;;;;;;5000104;28;20097;-65
2023/09/22 12:42:10;;;;;;;1.08;0.60;;;16.90;99.90;;;;;;5007138;28;20060;-66
2023/09/22 12:44:37;;;;;;;0.60;0.50;;;16.80;99.90;;;;;;5002648;28;20053;-66
2023/09/22 12:47:03;;;;;;;2.38;0.45;;;16.70;99.90;;;;;;5006497;28;20050;-66
2023/09/22 12:49:30;;;;;;;0.75;0.30;;;16.80;99.90;;;;;;5000128;28;20382;-65